Terminal Aerodrome Forecast
Issued by NWS

Current Version | Previous Version | Graphics & Text | Print | Product List | Glossary On
Versions: 1 2 3 4 5 6 7 8 9 10 11 12 13 14 15 16 17 18 19 20 21
937
FTUS41 KRLX 101739
TAFCKB
TAF
KCKB 101739Z 1018/1118 26010G20KT 4SM -SHSN SCT015 OVC025
      TEMPO 1018/1022 1SM -SHSN SCT008 OVC012
     FM110300 26009KT 6SM -SHSN OVC025
     FM111000 26005KT P6SM -SHSN OVC030=

USA.gov is the U.S. government's official web portal to all federal, state and local government web resources and services.